Latest Weather Observations for Woomera

IDS60801

Issued at 11:35 am CDT Saturday 25 October 2014 (issued every 30 minutes, with the page automatically refreshed every 10 minutes)

About weather observations | Map of weather stations | Latest weather observations for SA | Other Formats
Station Details ID: 016001 Name: WOOMERA AERODROME Lat: -31.16 Lon: 136.81 Height: 166.6 m
Data from the previous 72 hours. | See also: Recent months at Woomera
Date/Time
CDT
Temp
°C
App
Temp
°C
Dew
Point
Rel
Hum
%
Delta-T
°C
Wind Press
QNH
hPa
Press
MSL
hPa
Rain
since 9 am
mm
Dir
 
Spd
km/h
Gust
km/h
Spd
kts
Gust
kts
25/11:30am 29.9 24.6 1.9 16 13.9 S 19 26 10 14 1017.4 - 0.0
25/11:00am 28.9 23.4 1.9 17 13.3 S 20 28 11 15 1017.7 - 0.0
25/10:30am 28.0 21.4 2.2 19 12.7 S 26 33 14 18 1017.7 - 0.0
25/10:00am 26.6 19.6 2.2 20 11.9 S 28 33 15 18 1017.7 - 0.0
25/09:30am 25.3 18.6 3.8 25 10.7 S 28 33 15 18 1017.8 - 0.0
25/09:00am 24.2 17.0 5.0 29 9.7 S 32 39 17 21 1017.5 1017.1 0.0
25/08:30am 23.0 16.8 6.2 33 8.6 S 28 35 15 19 1017.5 - 0.0
25/08:00am 22.0 16.0 5.2 33 8.4 S 26 35 14 19 1017.4 - 0.0
25/07:30am 21.4 14.9 4.8 33 8.2 S 28 37 15 20 1016.9 - 0.0
25/07:00am 21.0 14.8 4.5 34 8.1 S 26 33 14 18 1016.4 - 0.0
25/06:30am 21.2 15.8 4.5 33 8.2 S 22 28 12 15 1015.8 - 0.0
25/06:00am 21.4 15.8 3.6 31 8.6 S 22 28 12 15 1015.4 1015.0 0.0
25/05:30am 21.9 16.0 3.8 30 8.8 S 24 30 13 16 1015.2 - 0.0
25/05:00am 21.9 16.5 4.5 32 8.6 SSW 22 28 12 15 1015.3 - 0.0
25/04:30am 22.3 17.0 2.9 28 9.3 SSW 20 26 11 14 1014.8 - 0.0
25/04:00am 22.3 17.4 1.9 26 9.6 SSW 17 20 9 11 1014.7 - 0.0
25/03:30am 22.4 17.5 1.8 25 9.7 SSW 17 20 9 11 1014.5 - 0.0
25/03:00am 23.6 18.6 1.6 23 10.4 SSW 17 20 9 11 1014.7 1014.3 0.0
25/02:30am 24.2 19.1 1.0 21 10.9 SSW 17 20 9 11 1014.6 - 0.0
25/02:00am 24.8 19.4 1.5 21 11.1 SSW 19 30 10 16 1014.9 - 0.0
25/01:30am 25.0 21.0 2.9 23 10.8 SSW 13 17 7 9 1014.7 - 0.0
25/01:00am 26.6 22.4 3.7 23 11.5 SSW 15 19 8 10 1014.7 - 0.0
25/12:30am 27.5 22.8 3.4 21 12.1 SW 17 20 9 11 1014.5 - 0.0
25/12:00am 30.1 26.9 3.1 18 13.7 SW 9 15 5 8 1014.7 1014.3 0.0
 
Date/Time
CDT
Temp
°C
App
Temp
°C
Dew
Point
Rel
Hum
%
Delta-T
°C
Wind Press
QNH
hPa
Press
MSL
hPa
Rain
since 9 am
mm
Dir
 
Spd
km/h
Gust
km/h
Spd
kts
Gust
kts
24/11:30pm 29.1 24.6 2.4 18 13.3 WNW 15 24 8 13 1014.7 - 0.0
24/11:00pm 30.9 25.7 0.3 14 14.9 N 17 20 9 11 1013.9 - 0.0
24/10:30pm 30.1 25.3 0.4 14 14.4 N 15 17 8 9 1013.8 - 0.0
24/10:00pm 30.2 25.2 1.5 16 14.2 NNE 17 17 9 9 1013.5 - 0.0
24/09:30pm 31.7 26.6 1.0 14 15.2 NNE 17 20 9 11 1013.3 - 0.0
24/09:00pm 32.3 28.0 0.8 13 15.6 NNW 13 15 7 8 1013.1 1012.7 0.0
24/08:38pm 33.6 27.2 1.2 13 16.3 N 24 30 13 16 1013.0 - 0.0
24/08:30pm 34.1 27.6 -2.1 10 17.3 N 22 26 12 14 1012.8 - 0.0
24/08:18pm 33.4 28.3 -1.6 10 16.8 NW 15 17 8 9 1012.7 - 0.0
24/08:00pm 35.2 30.8 -2.8 9 18.1 WSW 11 20 6 11 1012.5 - 0.0
24/07:41pm 35.5 29.3 -3.5 8 18.4 SW 20 35 11 19 1012.8 - 0.0
24/07:36pm 36.0 26.2 -2.9 8 18.6 WNW 39 57 21 31 1013.0 - 0.0
24/07:34pm 35.8 25.2 -3.6 8 18.6 WNW 43 57 23 31 1012.5 - 0.0
24/07:30pm 35.4 30.5 -0.6 10 17.8 NNW 15 17 8 9 1012.3 - 0.0
24/07:00pm 36.4 30.4 -1.6 9 18.6 NNW 20 24 11 13 1011.8 - 0.0
24/06:30pm 36.8 30.9 -2.4 8 19.0 NW 19 22 10 12 1011.5 - 0.0
24/06:00pm 37.0 29.6 -3.4 7 19.3 NW 26 37 14 20 1011.5 1011.0 0.0
24/05:30pm 37.3 31.8 -1.8 8 19.2 N 17 20 9 11 1011.3 - 0.0
24/05:03pm 37.8 30.0 -4.0 7 19.9 NW 28 52 15 28 1011.1 - 0.0
24/05:00pm 37.9 30.6 -3.1 7 19.8 NW 26 32 14 17 1011.2 - 0.0
24/04:30pm 38.0 32.0 -3.3 7 19.9 W 19 24 10 13 1011.2 - 0.0
24/04:00pm 39.0 32.8 -3.2 7 20.5 W 20 35 11 19 1011.6 - 0.0
24/03:30pm 38.7 33.8 -3.1 7 20.3 SW 13 22 7 12 1011.7 - 0.0
24/03:00pm 37.8 33.9 -1.8 8 19.5 NNW 9 17 5 9 1012.0 1011.5 0.0
24/02:30pm 37.7 32.8 -3.2 7 19.7 WSW 13 20 7 11 1012.4 - 0.0
24/02:00pm 38.2 33.1 -1.6 8 19.7 NW 15 22 8 12 1012.8 - 0.0
24/01:30pm 37.8 31.8 -2.9 7 19.7 WNW 19 32 10 17 1013.1 - 0.0
24/01:00pm 38.2 31.7 -2.7 7 19.9 NNW 22 32 12 17 1013.3 - 0.0
24/12:30pm 35.8 28.9 -3.0 8 18.5 N 24 39 13 21 1013.7 - 0.0
24/12:00pm 35.4 27.3 -3.3 8 18.3 N 30 37 16 20 1014.0 1013.6 0.0
24/11:30am 35.1 27.0 -3.2 8 18.1 N 30 39 16 21 1014.2 - 0.0
24/11:00am 34.2 26.6 -1.8 10 17.3 N 28 33 15 18 1014.3 - 0.0
24/10:30am 33.0 25.3 -2.9 10 16.8 N 28 35 15 19 1014.5 - 0.0
24/10:00am 31.3 24.4 -2.4 11 15.7 N 24 32 13 17 1014.3 - 0.0
24/09:30am 29.6 22.8 -1.8 13 14.6 N 24 30 13 16 1014.3 - 0.0
24/09:00am 27.9 22.2 -0.7 15 13.4 NNE 19 24 10 13 1014.3 1013.9 0.0
24/08:30am 25.5 19.1 1.1 20 11.6 N 24 28 13 15 1014.3 - 0.0
24/08:00am 24.9 19.4 2.1 22 11.0 NNE 20 26 11 14 1014.1 - 0.0
24/07:30am 22.7 17.8 2.3 26 9.7 NE 17 19 9 10 1014.3 - 0.0
24/07:00am 22.0 18.7 2.7 28 9.2 NNE 9 13 5 7 1014.5 - 0.0
24/06:30am 22.0 19.3 2.4 27 9.3 SE 6 9 3 5 1014.5 - 0.0
24/06:00am 23.3 17.7 1.4 23 10.3 NNE 20 24 11 13 1013.9 1013.5 0.0
24/05:30am 22.1 18.0 2.2 27 9.4 N 13 15 7 8 1014.5 - 0.0
24/05:00am 23.0 18.4 1.5 24 10.1 N 15 17 8 9 1014.3 - 0.0
24/04:30am 21.6 18.6 4.0 31 8.6 NNE 9 11 5 6 1013.8 - 0.0
24/04:00am 21.7 19.3 4.1 31 8.6 ESE 6 6 3 3 1013.9 - 0.0
24/03:30am 21.1 18.4 3.7 32 8.4 ESE 7 9 4 5 1013.9 - 0.0
24/03:00am 21.1 17.9 3.1 30 8.6 ESE 9 13 5 7 1013.8 1013.4 0.0
24/02:30am 22.5 18.0 2.0 26 9.7 E 15 17 8 9 1013.8 - 0.0
24/02:00am 23.3 18.3 1.4 23 10.3 E 17 19 9 10 1013.8 - 0.0
24/01:30am 24.0 19.9 2.1 24 10.5 E 13 13 7 7 1014.2 - 0.0
24/01:00am 24.7 20.9 2.0 22 10.9 ESE 11 13 6 7 1014.5 - 0.0
24/12:30am 25.6 21.8 2.0 21 11.4 ESE 11 13 6 7 1014.8 - 0.0
24/12:00am 26.0 22.7 2.5 21 11.5 SE 9 11 5 6 1015.2 1014.8 0.0
 
Date/Time
CDT
Temp
°C
App
Temp
°C
Dew
Point
Rel
Hum
%
Delta-T
°C
Wind Press
QNH
hPa
Press
MSL
hPa
Rain
since 9 am
mm
Dir
 
Spd
km/h
Gust
km/h
Spd
kts
Gust
kts
23/11:30pm 27.0 22.9 2.0 20 12.2 SSE 13 17 7 9 1015.3 - 0.0
23/11:00pm 27.3 22.8 1.9 19 12.4 SSE 15 20 8 11 1015.5 - 0.0
23/10:30pm 27.0 24.1 2.7 21 12.0 ESE 7 9 4 5 1015.5 - 0.0
23/10:00pm 27.1 23.8 2.6 20 12.1 SSE 9 13 5 7 1015.3 - 0.0
23/09:30pm 28.1 24.4 2.1 18 12.8 SE 11 13 6 7 1015.0 - 0.0
23/09:00pm 28.8 26.0 2.9 19 13.0 SSE 7 9 4 5 1014.6 1014.2 0.0
23/08:30pm 28.5 24.3 1.9 18 13.1 SSW 13 15 7 8 1014.3 - 0.0
23/08:00pm 29.7 26.0 2.3 17 13.7 SSW 11 13 6 7 1014.1 - 0.0
23/07:30pm 30.7 25.3 1.0 15 14.6 SSW 19 22 10 12 1013.8 - 0.0
23/07:00pm 31.4 24.9 0.3 13 15.2 SW 24 28 13 15 1013.6 - 0.0
23/06:30pm 32.4 26.0 1.1 13 15.6 SW 24 32 13 17 1013.4 - 0.0
23/06:00pm 33.4 25.5 -1.7 10 16.8 WSW 30 35 16 19 1013.3 1012.9 0.0
23/05:30pm 33.7 27.3 -1.8 10 17.0 WSW 22 32 12 17 1013.3 - 0.0
23/05:00pm 33.9 27.9 -3.2 9 17.4 W 19 28 10 15 1013.1 - 0.0
23/04:30pm 34.1 27.0 -4.3 8 17.7 W 24 33 13 18 1013.2 - 0.0
23/04:00pm 33.6 26.8 -2.1 10 17.0 W 24 39 13 21 1013.3 - 0.0
23/03:30pm 34.3 27.3 -0.5 11 17.1 WSW 26 37 14 20 1013.5 - 0.0
23/03:00pm 33.9 27.3 -0.7 11 16.9 W 24 37 13 20 1013.6 1013.2 0.0
23/02:30pm 33.3 27.4 -0.5 11 16.5 WSW 20 28 11 15 1014.0 - 0.0
23/02:00pm 32.9 27.7 0.2 12 16.1 WNW 17 30 9 16 1014.6 - 0.0
23/01:30pm 32.3 27.7 1.6 14 15.4 WNW 15 26 8 14 1015.0 - 0.0
23/01:00pm 31.2 27.6 5.1 19 13.8 NW 13 20 7 11 1015.4 - 0.0
23/12:30pm 29.9 27.3 6.1 22 12.7 NNW 9 17 5 9 1015.9 - 0.0
23/12:00pm 26.3 24.8 10.5 37 8.9 E 9 13 5 7 1016.2 1015.8 0.0
23/11:30am 24.4 23.1 11.3 43 7.4 SSE 9 13 5 7 1016.4 - 0.0
23/11:28am 23.6 22.6 12.3 49 6.5 SSE 9 13 5 7 1016.4 - 0.0
23/11:00am 18.6 19.0 15.2 80 2.0 SSE 7 13 4 7 1016.7 - 0.0
23/10:53am 18.2 19.1 17.5 96 0.4 SE 9 15 5 8 1016.8 - 0.0
23/10:30am 24.3 22.0 10.3 41 7.8 ESE 13 19 7 10 1016.7 - 0.0
23/10:00am 22.0 19.8 10.8 49 6.2 SE 13 19 7 10 1016.9 - 0.0
23/09:30am 20.4 18.1 11.6 57 4.9 SSE 15 19 8 10 1017.1 - 0.0
23/09:00am 18.6 16.0 12.1 66 3.6 SSE 17 20 9 11 1017.1 1016.7 0.0
23/08:30am 17.5 15.0 12.3 71 2.9 SSE 17 20 9 11 1017.2 - 0.0
23/08:00am 16.8 13.9 12.3 75 2.5 SSE 19 22 10 12 1017.1 - 0.0
23/07:30am 16.1 13.3 12.5 79 2.0 SSE 19 24 10 13 1016.9 - 0.0
23/07:00am 15.4 13.3 12.3 82 1.7 SSE 15 20 8 11 1017.0 - 0.0
23/06:30am 15.5 13.0 12.4 82 1.7 SSE 17 22 9 12 1016.9 - 0.0
23/06:00am 15.8 12.9 12.2 79 2.0 SE 19 22 10 12 1016.7 1016.3 0.0
23/05:30am 16.0 12.8 12.0 77 2.2 SSE 20 28 11 15 1016.5 - 0.0
23/05:00am 16.4 13.2 11.8 74 2.5 SSE 20 28 11 15 1016.4 - 0.0
23/04:30am 16.9 13.5 11.2 69 3.1 SSE 20 28 11 15 1016.1 - 0.0
23/04:00am 17.4 14.0 11.2 67 3.4 SSE 20 26 11 14 1016.3 - 0.0
23/03:30am 17.9 14.4 10.9 63 3.8 S 20 26 11 14 1016.5 - 0.0
23/03:00am 18.5 14.9 10.6 60 4.3 SSE 20 26 11 14 1016.8 1016.4 0.0
23/02:30am 19.4 15.4 10.6 56 4.8 SE 22 28 12 15 1016.8 - 0.0
23/02:00am 20.0 16.0 10.5 54 5.2 SSE 22 30 12 16 1017.0 - 0.0
23/01:30am 20.5 16.1 10.4 52 5.5 SSE 24 32 13 17 1017.4 - 0.0
23/01:00am 21.5 16.6 9.9 47 6.3 SSE 26 33 14 18 1017.5 - 0.0
23/12:30am 22.0 18.7 8.2 41 7.3 S 15 20 8 11 1017.9 - 0.0
23/12:00am 22.7 18.5 8.4 40 7.6 S 20 28 11 15 1017.9 1017.5 0.0
 
Date/Time
CDT
Temp
°C
App
Temp
°C
Dew
Point
Rel
Hum
%
Delta-T
°C
Wind Press
QNH
hPa
Press
MSL
hPa
Rain
since 9 am
mm
Dir
 
Spd
km/h
Gust
km/h
Spd
kts
Gust
kts
22/11:30pm 23.5 18.8 7.8 36 8.3 SSE 22 30 12 16 1017.7 - 0.0
22/11:00pm 24.1 19.8 7.9 35 8.6 SSE 20 26 11 14 1017.5 - 0.0
22/10:30pm 24.7 19.6 7.8 34 9.0 SSE 24 32 13 17 1017.5 - 0.0
22/10:00pm 25.6 20.0 7.3 31 9.7 SE 26 33 14 18 1017.5 - 0.0
22/09:30pm 26.8 20.9 7.6 29 10.3 SE 28 35 15 19 1017.3 - 0.0
22/09:00pm 28.0 22.3 2.6 19 12.6 SSE 22 28 12 15 1017.2 1016.8 0.0
22/08:30pm 29.4 24.0 -1.0 14 14.3 WSW 17 20 9 11 1016.5 - 0.0
22/08:00pm 30.9 25.0 -2.6 11 15.5 SW 19 24 10 13 1016.2 - 0.0
22/07:30pm 31.9 25.6 -3.7 10 16.3 SW 20 28 11 15 1015.8 - 0.0
22/07:00pm 32.8 26.0 -4.7 8 17.0 SW 22 28 12 15 1015.5 - 0.0
22/06:30pm 33.6 26.8 -5.5 8 17.6 SW 22 33 12 18 1015.3 - 0.0
22/06:00pm 34.2 27.0 -5.2 8 17.9 SSW 24 28 13 15 1015.2 1014.8 0.0
22/05:30pm 34.4 28.4 -2.8 9 17.6 WSW 19 30 10 16 1015.1 - 0.0
22/05:00pm 34.7 27.8 -2.4 9 17.7 SSW 24 33 13 18 1015.2 - 0.0
22/04:30pm 34.5 28.0 -2.5 9 17.6 W 22 26 12 14 1015.3 - 0.0
22/04:00pm 33.7 28.4 -0.4 11 16.7 WSW 17 30 9 16 1015.5 - 0.0
22/03:30pm 34.5 29.1 -1.0 10 17.3 SSW 17 30 9 16 1015.8 - 0.0
22/03:00pm 33.7 27.8 -2.4 10 17.1 SW 19 30 10 16 1016.0 1015.6 0.0
22/02:30pm 33.1 27.2 -0.7 11 16.4 S 20 28 11 15 1016.4 - 0.0
22/02:00pm 33.0 27.4 1.2 13 15.9 SW 20 30 11 16 1016.9 - 0.0
22/01:30pm 32.4 27.0 1.4 14 15.5 S 19 28 10 15 1017.1 - 0.0
22/01:00pm 31.7 26.4 2.1 15 14.9 SSW 19 28 10 15 1017.3 - 0.0
22/12:30pm 31.0 25.6 2.4 16 14.4 S 20 28 11 15 1017.5 - 0.0
22/12:00pm 30.1 24.8 3.1 18 13.7 SSW 20 28 11 15 1017.8 1017.4 0.0

Other Formats:

Comma delimited format used in spreadsheet applications
http://www.bom.gov.au/fwo/IDS60801/IDS60801.94659.axf

JavaScript Object Notation format (JSON) in row-major order
http://www.bom.gov.au/fwo/IDS60801/IDS60801.94659.json